createdAt,value
2018-06-24T00:00:30.678Z,7.48
2018-06-24T00:01:31.153Z,7.47
2018-06-24T00:02:31.628Z,7.46
2018-06-24T00:03:32.100Z,7.45
2018-06-24T00:04:32.579Z,7.44
2018-06-24T00:05:33.047Z,7.42
2018-06-24T00:06:33.524Z,7.40
2018-06-24T00:07:33.995Z,7.39
2018-06-24T00:08:34.471Z,7.38
2018-06-24T00:09:34.947Z,7.36
2018-06-24T00:10:35.472Z,7.36
2018-06-24T00:11:35.897Z,7.34
2018-06-24T00:12:36.366Z,7.34
2018-06-24T00:13:36.840Z,7.32
2018-06-24T00:14:37.313Z,7.32
2018-06-24T00:15:37.787Z,7.30
2018-06-24T00:16:38.263Z,7.28
2018-06-24T00:17:38.733Z,7.28
2018-06-24T00:18:39.210Z,7.28
2018-06-24T00:19:39.682Z,7.27
2018-06-24T00:20:40.206Z,7.25
2018-06-24T00:21:40.625Z,7.24
2018-06-24T00:22:41.098Z,7.22
2018-06-24T00:23:41.572Z,7.22
2018-06-24T00:24:42.043Z,7.20
2018-06-24T00:25:42.516Z,7.18
2018-06-24T00:26:42.986Z,7.18
2018-06-24T00:27:43.459Z,7.16
2018-06-24T00:28:43.929Z,7.15
2018-06-24T00:29:44.400Z,7.14
2018-06-24T00:30:44.872Z,7.13
2018-06-24T00:31:45.342Z,7.12
2018-06-24T00:32:45.817Z,7.11
2018-06-24T00:33:46.285Z,7.10
2018-06-24T00:34:46.757Z,7.08
2018-06-24T00:35:47.225Z,7.08
2018-06-24T00:36:47.696Z,7.06
2018-06-24T00:37:48.164Z,7.06
2018-06-24T00:38:48.637Z,7.04
2018-06-24T00:39:49.107Z,7.05
2018-06-24T00:40:49.579Z,7.04
2018-06-24T00:41:50.047Z,7.02
2018-06-24T00:42:50.518Z,7.01
2018-06-24T00:43:50.987Z,7.00
2018-06-24T00:44:51.464Z,6.98
2018-06-24T00:45:51.929Z,6.96
2018-06-24T00:46:52.400Z,6.95
2018-06-24T00:47:52.869Z,6.94
2018-06-24T00:48:53.340Z,6.93
2018-06-24T00:49:53.810Z,6.92
2018-06-24T00:50:54.282Z,6.90
2018-06-24T00:51:54.754Z,6.89
2018-06-24T00:52:55.224Z,6.88
2018-06-24T00:53:55.694Z,6.87
2018-06-24T00:54:56.166Z,6.86
2018-06-24T00:55:56.639Z,6.85
2018-06-24T00:56:57.109Z,6.84
2018-06-24T00:57:57.580Z,6.82
2018-06-24T00:58:58.052Z,6.80
2018-06-24T00:59:58.527Z,6.80
2018-06-24T01:00:58.996Z,6.80
2018-06-24T01:01:59.468Z,6.79
2018-06-24T01:02:59.941Z,6.78
2018-06-24T01:04:00.413Z,6.77
2018-06-24T01:05:00.887Z,6.76
2018-06-24T01:06:01.358Z,6.74
2018-06-24T01:07:01.830Z,6.74
2018-06-24T01:08:02.305Z,6.72
2018-06-24T01:09:02.779Z,6.70
2018-06-24T01:10:03.249Z,6.70
2018-06-24T01:11:03.723Z,6.69
2018-06-24T01:12:04.196Z,6.66
2018-06-24T01:13:04.668Z,6.65
2018-06-24T01:14:05.144Z,6.64
2018-06-24T01:15:05.616Z,6.62
2018-06-24T01:16:06.140Z,6.61
2018-06-24T01:17:06.565Z,6.62
2018-06-24T01:18:07.036Z,6.58
2018-06-24T01:19:07.512Z,6.56
2018-06-24T01:20:07.984Z,6.56
2018-06-24T01:21:08.460Z,6.56
2018-06-24T01:22:08.932Z,6.55
2018-06-24T01:23:09.406Z,6.54
2018-06-24T01:24:09.880Z,6.53
2018-06-24T01:25:10.357Z,6.51
2018-06-24T01:26:10.827Z,6.50
2018-06-24T01:27:11.306Z,6.51
2018-06-24T01:28:11.777Z,6.49
2018-06-24T01:29:12.250Z,6.48
2018-06-24T01:30:12.725Z,6.48
2018-06-24T01:31:13.199Z,6.46
2018-06-24T01:32:13.674Z,6.44
2018-06-24T01:33:14.145Z,6.43
2018-06-24T01:34:14.616Z,6.42
2018-06-24T01:35:15.090Z,6.40
2018-06-24T01:36:15.563Z,6.40
2018-06-24T01:37:16.037Z,6.38
2018-06-24T01:38:16.508Z,6.38
2018-06-24T01:39:16.979Z,6.37
2018-06-24T01:40:17.451Z,6.36
2018-06-24T01:41:17.922Z,6.34
2018-06-24T01:42:18.399Z,6.34
2018-06-24T01:43:18.864Z,6.32
2018-06-24T01:44:19.342Z,6.32
2018-06-24T01:45:19.808Z,6.30
2018-06-24T01:46:20.281Z,6.29
2018-06-24T01:47:20.748Z,6.30
2018-06-24T01:48:21.220Z,6.30
2018-06-24T01:49:21.689Z,6.27
2018-06-24T01:50:22.161Z,6.26
2018-06-24T01:51:22.631Z,6.26
2018-06-24T01:52:23.101Z,6.24
2018-06-24T01:53:23.571Z,6.24
2018-06-24T01:54:24.041Z,6.22
2018-06-24T01:55:24.510Z,6.22
2018-06-24T01:56:24.984Z,6.20
2018-06-24T01:57:25.451Z,6.20
2018-06-24T01:58:25.924Z,6.18
2018-06-24T01:59:26.392Z,6.17
2018-06-24T02:00:26.864Z,6.16
2018-06-24T02:01:27.334Z,6.14
2018-06-24T02:02:27.802Z,6.12
2018-06-24T02:03:28.275Z,6.12
2018-06-24T02:04:28.746Z,6.12
2018-06-24T02:05:29.219Z,6.10
2018-06-24T02:06:29.686Z,6.08
2018-06-24T02:07:30.157Z,6.08
2018-06-24T02:08:30.629Z,6.08
2018-06-24T02:09:31.100Z,6.06
2018-06-24T02:10:31.570Z,6.06
2018-06-24T02:11:32.045Z,6.04
2018-06-24T02:12:32.518Z,6.02
2018-06-24T02:13:32.986Z,6.02
2018-06-24T02:14:33.458Z,6.01
2018-06-24T02:15:33.928Z,5.99
2018-06-24T02:16:34.404Z,6.00
2018-06-24T02:17:34.873Z,5.98
2018-06-24T02:18:35.347Z,5.98
2018-06-24T02:19:35.817Z,5.98
2018-06-24T02:20:36.289Z,5.96
2018-06-24T02:21:36.763Z,5.95
2018-06-24T02:22:37.235Z,5.94
2018-06-24T02:23:37.708Z,5.91
2018-06-24T02:24:38.179Z,5.90
2018-06-24T02:25:38.654Z,5.89
2018-06-24T02:26:39.125Z,5.89
2018-06-24T02:27:39.600Z,5.86
2018-06-24T02:28:40.075Z,5.84
2018-06-24T02:29:40.545Z,5.86
2018-06-24T02:30:41.022Z,5.82
2018-06-24T02:31:41.493Z,5.81
2018-06-24T02:32:41.965Z,5.80
2018-06-24T02:33:42.440Z,5.79
2018-06-24T02:34:42.912Z,5.78
2018-06-24T02:35:43.387Z,5.78
2018-06-24T02:36:43.861Z,5.75
2018-06-24T02:37:44.334Z,5.76
2018-06-24T02:38:44.813Z,5.74
2018-06-24T02:39:45.284Z,5.72
2018-06-24T02:40:45.757Z,5.70
2018-06-24T02:41:46.235Z,5.71
2018-06-24T02:42:46.704Z,5.70
2018-06-24T02:43:47.179Z,5.68
2018-06-24T02:44:47.653Z,5.68
2018-06-24T02:45:48.132Z,5.66
2018-06-24T02:46:48.600Z,5.66
2018-06-24T02:47:49.075Z,5.64
2018-06-24T02:48:49.547Z,5.64
2018-06-24T02:49:50.019Z,5.63
2018-06-24T02:50:50.492Z,5.60
2018-06-24T02:51:50.963Z,5.62
2018-06-24T02:52:51.907Z,5.59
2018-06-24T02:53:51.908Z,5.58
2018-06-24T02:54:52.380Z,5.58
2018-06-24T02:55:52.851Z,5.56
2018-06-24T02:56:53.324Z,5.56
2018-06-24T02:57:53.801Z,5.55
2018-06-24T02:58:54.267Z,5.54
2018-06-24T02:59:54.741Z,5.53
2018-06-24T03:00:55.209Z,5.50
2018-06-24T03:01:55.680Z,5.52
2018-06-24T03:02:56.148Z,5.50
2018-06-24T03:03:56.621Z,5.48
2018-06-24T03:04:57.091Z,5.46
2018-06-24T03:05:57.561Z,5.46
2018-06-24T03:06:58.031Z,5.46
2018-06-24T03:07:58.543Z,5.46
2018-06-24T03:08:58.972Z,5.44
2018-06-24T03:09:59.445Z,5.46
2018-06-24T03:10:59.911Z,5.45
2018-06-24T03:12:00.381Z,5.42
2018-06-24T03:13:00.853Z,5.42
2018-06-24T03:14:01.326Z,5.40
2018-06-24T03:15:01.793Z,5.42
2018-06-24T03:16:02.262Z,5.40
2018-06-24T03:17:02.738Z,5.40
2018-06-24T03:18:03.204Z,5.40
2018-06-24T03:19:03.674Z,5.38
2018-06-24T03:20:04.144Z,5.38
2018-06-24T03:21:04.616Z,5.36
2018-06-24T03:22:05.136Z,5.38
2018-06-24T03:23:05.556Z,5.36
2018-06-24T03:24:06.031Z,5.35
2018-06-24T03:25:06.502Z,5.36
2018-06-24T03:26:06.969Z,5.34
2018-06-24T03:27:07.439Z,5.33
2018-06-24T03:28:07.911Z,5.32
2018-06-24T03:29:08.383Z,5.32
2018-06-24T03:30:08.856Z,5.32
2018-06-24T03:31:09.327Z,5.30
2018-06-24T03:32:09.795Z,5.28
2018-06-24T03:33:10.268Z,5.30
2018-06-24T03:34:10.745Z,5.30
2018-06-24T03:35:11.212Z,5.28
2018-06-24T03:36:11.685Z,5.28
2018-06-24T03:37:12.157Z,5.26
2018-06-24T03:38:12.627Z,5.24
2018-06-24T03:39:13.100Z,5.24
2018-06-24T03:40:13.572Z,5.23
2018-06-24T03:41:14.048Z,5.23
2018-06-24T03:42:14.517Z,5.24
2018-06-24T03:43:14.989Z,5.23
2018-06-24T03:44:15.464Z,5.22
2018-06-24T03:45:15.935Z,5.22
2018-06-24T03:46:16.409Z,5.21
2018-06-24T03:47:16.889Z,5.22
2018-06-24T03:48:17.353Z,5.22
2018-06-24T03:49:17.828Z,5.21
2018-06-24T03:50:18.302Z,5.20
2018-06-24T03:51:18.775Z,5.19
2018-06-24T03:52:19.247Z,5.20
2018-06-24T03:53:19.720Z,5.20
2018-06-24T03:54:20.194Z,5.18
2018-06-24T03:55:20.668Z,5.18
2018-06-24T03:56:21.142Z,5.16
2018-06-24T03:57:21.615Z,5.18
2018-06-24T03:58:22.089Z,5.18
2018-06-24T03:59:22.563Z,5.16
2018-06-24T04:00:23.037Z,5.17
2018-06-24T04:01:23.510Z,5.16
2018-06-24T04:02:23.986Z,5.15
2018-06-24T04:03:24.459Z,5.16
2018-06-24T04:04:24.966Z,5.16
2018-06-24T04:05:25.406Z,5.14
2018-06-24T04:06:25.881Z,5.16
2018-06-24T04:07:26.355Z,5.14
2018-06-24T04:08:26.826Z,5.14
2018-06-24T04:09:27.301Z,5.14
2018-06-24T04:10:27.778Z,5.13
2018-06-24T04:11:28.247Z,5.13
2018-06-24T04:12:28.720Z,5.14
2018-06-24T04:13:29.231Z,5.14
2018-06-24T04:14:29.668Z,5.12
2018-06-24T04:15:30.139Z,5.12
2018-06-24T04:16:30.611Z,5.11
2018-06-24T04:17:31.084Z,5.10
2018-06-24T04:18:31.560Z,5.11
2018-06-24T04:19:32.029Z,5.12
2018-06-24T04:20:32.498Z,5.10
2018-06-24T04:21:32.970Z,5.10
2018-06-24T04:22:33.440Z,5.09
2018-06-24T04:23:33.912Z,5.10
2018-06-24T04:24:34.384Z,5.10
2018-06-24T04:25:34.854Z,5.10
2018-06-24T04:26:35.325Z,5.08
2018-06-24T04:27:35.793Z,5.08
2018-06-24T04:28:36.265Z,5.08
2018-06-24T04:29:36.786Z,5.08
2018-06-24T04:30:37.208Z,5.08
2018-06-24T04:31:37.674Z,5.08
2018-06-24T04:32:38.145Z,5.06
2018-06-24T04:33:38.617Z,5.07
2018-06-24T04:34:39.092Z,5.07
2018-06-24T04:35:39.557Z,5.06
2018-06-24T04:36:40.092Z,5.07
2018-06-24T04:37:40.498Z,5.06
2018-06-24T04:38:40.968Z,5.06
2018-06-24T04:39:41.440Z,5.05
2018-06-24T04:40:41.909Z,5.04
2018-06-24T04:41:42.395Z,5.04
2018-06-24T04:42:42.852Z,5.06
2018-06-24T04:43:43.319Z,5.04
2018-06-24T04:44:43.790Z,5.04
2018-06-24T04:45:44.262Z,5.03
2018-06-24T04:46:44.733Z,5.02
2018-06-24T04:47:45.204Z,5.03
2018-06-24T04:48:45.680Z,5.02
2018-06-24T04:49:46.149Z,5.02
2018-06-24T04:50:46.620Z,5.02
2018-06-24T04:51:47.183Z,5.00
2018-06-24T04:52:47.564Z,5.00
2018-06-24T04:53:48.034Z,5.00
2018-06-24T04:54:48.505Z,5.02
2018-06-24T04:55:48.975Z,5.01
2018-06-24T04:56:49.447Z,5.00
2018-06-24T04:57:49.919Z,5.01
2018-06-24T04:58:50.392Z,5.00
2018-06-24T04:59:50.864Z,5.02
2018-06-24T05:00:51.339Z,5.00
2018-06-24T05:01:51.811Z,5.01
2018-06-24T05:02:52.285Z,5.00
2018-06-24T05:03:52.756Z,4.99
2018-06-24T05:04:53.227Z,4.98
2018-06-24T05:05:53.701Z,4.99
2018-06-24T05:06:54.174Z,5.01
2018-06-24T05:07:54.645Z,5.00
2018-06-24T05:08:55.118Z,5.00
2018-06-24T05:09:55.594Z,5.00
2018-06-24T05:10:56.102Z,5.00
2018-06-24T05:11:56.538Z,5.00
2018-06-24T05:12:57.012Z,4.98
2018-06-24T05:13:57.485Z,4.99
2018-06-24T05:14:57.963Z,5.00
2018-06-24T05:15:58.432Z,4.99
2018-06-24T05:16:58.908Z,5.00
2018-06-24T05:17:59.380Z,5.00
2018-06-24T05:18:59.855Z,5.00
2018-06-24T05:20:00.327Z,4.99
2018-06-24T05:21:00.801Z,5.00
2018-06-24T05:22:01.276Z,5.00
2018-06-24T05:23:01.751Z,5.00
2018-06-24T05:24:02.223Z,5.00
2018-06-24T05:25:02.700Z,5.00
2018-06-24T05:26:03.177Z,5.00
2018-06-24T05:27:03.649Z,5.00
2018-06-24T05:28:04.119Z,4.98
2018-06-24T05:29:04.596Z,5.01
2018-06-24T05:30:05.069Z,5.02
2018-06-24T05:31:05.543Z,5.02
2018-06-24T05:32:06.015Z,5.02
2018-06-24T05:33:06.491Z,5.00
2018-06-24T05:34:06.960Z,5.02
2018-06-24T05:35:07.433Z,5.02
2018-06-24T05:36:07.906Z,5.03
2018-06-24T05:37:08.377Z,5.02
2018-06-24T05:38:08.851Z,5.02
2018-06-24T05:39:09.323Z,5.03
2018-06-24T05:40:09.793Z,5.04
2018-06-24T05:41:10.268Z,5.03
2018-06-24T05:42:10.737Z,5.02
2018-06-24T05:43:11.231Z,5.02
2018-06-24T05:44:11.681Z,5.04
2018-06-24T05:45:12.154Z,5.04
2018-06-24T05:46:12.621Z,5.02
2018-06-24T05:47:13.094Z,5.04
2018-06-24T05:48:13.613Z,5.04
2018-06-24T05:49:14.037Z,5.04
2018-06-24T05:50:14.508Z,5.04
2018-06-24T05:51:14.974Z,5.04
2018-06-24T05:52:15.446Z,5.04
2018-06-24T05:53:15.966Z,5.06
2018-06-24T05:54:16.602Z,5.05
2018-06-24T05:55:16.856Z,5.04
2018-06-24T05:56:17.323Z,5.06
2018-06-24T05:57:17.797Z,5.06
2018-06-24T05:58:18.265Z,5.06
2018-06-24T05:59:18.739Z,5.06
2018-06-24T06:00:19.210Z,5.06
2018-06-24T06:01:19.678Z,5.06
2018-06-24T06:02:20.149Z,5.06
2018-06-24T06:03:20.619Z,5.07
2018-06-24T06:04:21.088Z,5.06
2018-06-24T06:05:21.560Z,5.06
2018-06-24T06:06:22.031Z,5.08
2018-06-24T06:07:22.505Z,5.08
2018-06-24T06:08:22.972Z,5.08
2018-06-24T06:09:23.443Z,5.08
2018-06-24T06:10:23.970Z,5.08
2018-06-24T06:11:24.386Z,5.10
2018-06-24T06:12:24.859Z,5.09
2018-06-24T06:13:25.329Z,5.09
2018-06-24T06:14:25.801Z,5.10
2018-06-24T06:15:26.273Z,5.10
2018-06-24T06:16:26.745Z,5.10
2018-06-24T06:17:27.216Z,5.10
2018-06-24T06:18:27.687Z,5.12
2018-06-24T06:19:28.160Z,5.12
2018-06-24T06:20:28.631Z,5.14
2018-06-24T06:21:29.105Z,5.14
2018-06-24T06:22:29.576Z,5.14
2018-06-24T06:23:30.054Z,5.18
2018-06-24T06:24:30.522Z,5.16
2018-06-24T06:25:30.994Z,5.18
2018-06-24T06:26:31.469Z,5.18
2018-06-24T06:27:31.943Z,5.18
2018-06-24T06:28:32.415Z,5.20
2018-06-24T06:29:32.887Z,5.23
2018-06-24T06:30:33.363Z,5.25
2018-06-24T06:31:33.836Z,5.26
2018-06-24T06:32:34.312Z,5.28
2018-06-24T06:33:34.783Z,5.30
2018-06-24T06:34:35.258Z,5.30
2018-06-24T06:35:35.729Z,5.32
2018-06-24T06:36:36.236Z,5.34
2018-06-24T06:37:36.676Z,5.36
2018-06-24T06:38:37.151Z,5.37
2018-06-24T06:39:37.630Z,5.39
2018-06-24T06:40:38.100Z,5.41
2018-06-24T06:41:38.573Z,5.42
2018-06-24T06:42:39.048Z,5.44
2018-06-24T06:43:39.522Z,5.46
2018-06-24T06:44:39.997Z,5.48
2018-06-24T06:45:40.593Z,5.50
2018-06-24T06:46:40.947Z,5.53
2018-06-24T06:47:41.418Z,5.54
2018-06-24T06:48:41.893Z,5.56
2018-06-24T06:49:42.368Z,5.57
2018-06-24T06:50:42.842Z,5.59
2018-06-24T06:51:43.315Z,5.62
2018-06-24T06:52:43.787Z,5.63
2018-06-24T06:53:44.269Z,5.66
2018-06-24T06:54:44.737Z,5.67
2018-06-24T06:55:45.209Z,5.70
2018-06-24T06:56:45.685Z,5.72
2018-06-24T06:57:46.199Z,5.74
2018-06-24T06:58:46.626Z,5.76
2018-06-24T06:59:47.098Z,5.78
2018-06-24T07:00:47.569Z,5.80
2018-06-24T07:01:48.043Z,5.82
2018-06-24T07:02:48.516Z,5.84
2018-06-24T07:03:48.987Z,5.87
2018-06-24T07:04:49.462Z,5.87
2018-06-24T07:05:49.971Z,5.90
2018-06-24T07:06:50.401Z,5.91
2018-06-24T07:07:50.874Z,5.95
2018-06-24T07:08:51.341Z,5.98
2018-06-24T07:09:51.814Z,6.00
2018-06-24T07:10:52.283Z,6.02
2018-06-24T07:11:52.755Z,6.05
2018-06-24T07:12:53.224Z,6.07
2018-06-24T07:13:53.695Z,6.10
2018-06-24T07:14:54.168Z,6.12
2018-06-24T07:15:54.638Z,6.14
2018-06-24T07:16:55.110Z,6.18
2018-06-24T07:17:55.583Z,6.22
2018-06-24T07:18:56.051Z,6.24
2018-06-24T07:19:56.521Z,6.27
2018-06-24T07:20:56.992Z,6.30
2018-06-24T07:21:57.464Z,6.34
2018-06-24T07:22:57.933Z,6.36
2018-06-24T07:23:58.404Z,6.40
2018-06-24T07:24:58.876Z,6.44
2018-06-24T07:25:59.349Z,6.47
2018-06-24T07:26:59.821Z,6.50
2018-06-24T07:28:00.292Z,6.54
2018-06-24T07:29:00.765Z,6.58
2018-06-24T07:30:01.237Z,6.62
2018-06-24T07:31:01.718Z,6.66
2018-06-24T07:32:02.181Z,6.70
2018-06-24T07:33:02.667Z,6.74
2018-06-24T07:34:03.126Z,6.78
2018-06-24T07:35:03.597Z,6.83
2018-06-24T07:36:04.072Z,6.89
2018-06-24T07:37:04.543Z,6.92
2018-06-24T07:38:05.017Z,6.97
2018-06-24T07:39:05.596Z,7.03
2018-06-24T07:40:05.965Z,7.08
2018-06-24T07:41:06.440Z,7.14
2018-06-24T07:42:06.911Z,7.18
2018-06-24T07:43:07.385Z,7.25
2018-06-24T07:44:07.909Z,7.32
2018-06-24T07:45:08.334Z,7.37
2018-06-24T07:46:08.810Z,7.44
2018-06-24T07:47:09.287Z,7.51
2018-06-24T07:48:09.762Z,7.56
2018-06-24T07:49:10.230Z,7.62
2018-06-24T07:50:10.718Z,7.68
2018-06-24T07:51:11.182Z,7.75
2018-06-24T07:52:11.657Z,7.81
2018-06-24T07:53:12.132Z,7.86
2018-06-24T07:54:12.607Z,7.94
2018-06-24T07:55:13.081Z,8.00
2018-06-24T07:56:13.557Z,8.04
2018-06-24T07:57:14.029Z,8.14
2018-06-24T07:58:14.503Z,8.18
2018-06-24T07:59:14.980Z,8.24
2018-06-24T08:00:15.456Z,8.29
2018-06-24T08:01:15.930Z,8.35
2018-06-24T08:02:16.403Z,8.42
2018-06-24T08:03:16.894Z,8.47
2018-06-24T08:04:17.352Z,8.53
2018-06-24T08:05:17.880Z,8.59
2018-06-24T08:06:18.297Z,8.66
2018-06-24T08:07:18.772Z,8.70
2018-06-24T08:08:19.249Z,8.76
2018-06-24T08:09:19.717Z,8.82
2018-06-24T08:10:20.190Z,8.88
2018-06-24T08:11:20.717Z,8.96
2018-06-24T08:12:21.135Z,9.00
2018-06-24T08:13:21.608Z,9.07
2018-06-24T08:14:22.083Z,9.14
2018-06-24T08:15:22.554Z,9.20
2018-06-24T08:16:23.079Z,9.28
2018-06-24T08:17:23.495Z,9.34
2018-06-24T08:18:23.969Z,9.39
2018-06-24T08:19:24.442Z,9.46
2018-06-24T08:20:24.913Z,9.51
2018-06-24T08:21:25.387Z,9.56
2018-06-24T08:22:25.856Z,9.62
2018-06-24T08:23:26.326Z,9.68
2018-06-24T08:24:26.848Z,9.74
2018-06-24T08:25:27.269Z,9.80
2018-06-24T08:26:27.742Z,9.86
2018-06-24T08:27:28.217Z,9.94
2018-06-24T08:28:28.683Z,9.99
2018-06-24T08:29:29.154Z,10.05
2018-06-24T08:30:29.631Z,10.12
2018-06-24T08:31:30.104Z,10.19
2018-06-24T08:32:30.570Z,10.25
2018-06-24T08:33:31.041Z,10.31
2018-06-24T08:34:31.513Z,10.38
2018-06-24T08:35:31.987Z,10.40
2018-06-24T08:36:32.460Z,10.49
2018-06-24T08:37:32.934Z,10.55
2018-06-24T08:38:33.405Z,10.62
2018-06-24T08:39:33.875Z,10.68
2018-06-24T08:40:34.349Z,10.76
2018-06-24T08:41:34.827Z,10.82
2018-06-24T08:42:35.295Z,10.90
2018-06-24T08:43:35.769Z,10.96
2018-06-24T08:44:36.242Z,11.04
2018-06-24T08:45:36.715Z,11.12
2018-06-24T08:46:37.393Z,11.21
2018-06-24T08:47:37.664Z,11.28
2018-06-24T08:48:38.144Z,11.38
2018-06-24T08:49:38.612Z,11.47
2018-06-24T08:50:39.089Z,11.57
2018-06-24T08:51:39.562Z,11.67
2018-06-24T08:52:40.040Z,11.77
2018-06-24T08:53:40.514Z,11.88
2018-06-24T08:54:41.039Z,11.99
2018-06-24T08:55:41.468Z,12.10
2018-06-24T08:56:41.941Z,12.20
2018-06-24T08:57:42.618Z,12.32
2018-06-24T08:58:42.891Z,12.44
2018-06-24T08:59:43.368Z,12.54
2018-06-24T09:00:43.970Z,12.65
2018-06-24T09:01:44.320Z,12.76
2018-06-24T09:02:44.793Z,12.88
2018-06-24T09:03:45.268Z,12.98
2018-06-24T09:04:45.745Z,13.09
2018-06-24T09:05:46.220Z,13.18
2018-06-24T09:06:46.695Z,13.30
2018-06-24T09:07:47.170Z,13.40
2018-06-24T09:08:47.646Z,13.50
2018-06-24T09:09:48.119Z,13.59
2018-06-24T09:10:48.596Z,13.66
2018-06-24T09:11:49.075Z,13.74
2018-06-24T09:12:49.546Z,13.81
2018-06-24T09:13:50.021Z,13.90
2018-06-24T09:14:50.541Z,13.94
2018-06-24T09:15:51.000Z,14.02
2018-06-24T09:16:51.443Z,14.07
2018-06-24T09:17:51.917Z,14.14
2018-06-24T09:18:52.406Z,14.20
2018-06-24T09:19:52.867Z,14.24
2018-06-24T09:20:53.339Z,14.28
2018-06-24T09:21:53.817Z,14.33
2018-06-24T09:22:54.286Z,14.38
2018-06-24T09:23:54.759Z,14.42
2018-06-24T09:24:55.235Z,14.44
2018-06-24T09:25:55.705Z,14.48
2018-06-24T09:26:56.179Z,14.51
2018-06-24T09:27:56.652Z,14.52
2018-06-24T09:28:57.124Z,14.54
2018-06-24T09:29:57.596Z,14.56
2018-06-24T09:30:58.071Z,14.59
2018-06-24T09:31:58.542Z,14.60
2018-06-24T09:32:59.015Z,14.62
2018-06-24T09:33:59.487Z,14.64
2018-06-24T09:35:00.011Z,14.66
2018-06-24T09:36:00.431Z,14.67
2018-06-24T09:37:00.906Z,14.69
2018-06-24T09:38:01.374Z,14.71
2018-06-24T09:39:01.849Z,14.73
2018-06-24T09:40:02.371Z,14.74
2018-06-24T09:41:02.820Z,14.78
2018-06-24T09:42:03.268Z,14.78
2018-06-24T09:43:03.736Z,14.80
2018-06-24T09:44:04.209Z,14.82
2018-06-24T09:45:04.680Z,14.84
2018-06-24T09:46:05.151Z,14.84
2018-06-24T09:47:05.623Z,14.85
2018-06-24T09:48:06.097Z,14.86
2018-06-24T09:49:06.568Z,14.88
2018-06-24T09:50:07.042Z,14.89
2018-06-24T09:51:07.512Z,14.89
2018-06-24T09:52:07.986Z,14.90
2018-06-24T09:53:08.463Z,14.90
2018-06-24T09:54:08.932Z,14.89
2018-06-24T09:55:09.456Z,14.90
2018-06-24T09:56:09.880Z,14.88
2018-06-24T09:57:10.353Z,14.88
2018-06-24T09:58:10.827Z,14.89
2018-06-24T09:59:11.301Z,14.88
2018-06-24T10:00:11.775Z,14.90
2018-06-24T10:01:12.250Z,14.90
2018-06-24T10:02:12.725Z,14.92
2018-06-24T10:03:13.200Z,14.93
2018-06-24T10:04:13.675Z,14.94
2018-06-24T10:05:14.150Z,14.95
2018-06-24T10:06:14.626Z,14.96
2018-06-24T10:07:15.106Z,14.97
2018-06-24T10:08:15.580Z,15.00
2018-06-24T10:09:16.057Z,15.02
2018-06-24T10:10:16.528Z,15.03
2018-06-24T10:11:17.004Z,15.06
2018-06-24T10:12:17.481Z,15.08
2018-06-24T10:13:17.957Z,15.12
2018-06-24T10:14:18.433Z,15.13
2018-06-24T10:15:18.908Z,15.16
2018-06-24T10:16:19.385Z,15.18
2018-06-24T10:17:19.929Z,15.20
2018-06-24T10:18:20.339Z,15.22
2018-06-24T10:19:20.813Z,15.26
2018-06-24T10:20:21.289Z,15.30
2018-06-24T10:21:21.766Z,15.30
2018-06-24T10:22:22.240Z,15.32
2018-06-24T10:23:22.715Z,15.34
2018-06-24T10:24:23.190Z,15.36
2018-06-24T10:25:23.667Z,15.38
2018-06-24T10:26:24.140Z,15.39
2018-06-24T10:27:24.619Z,15.40
2018-06-24T10:28:25.095Z,15.40
2018-06-24T10:29:25.583Z,15.42
2018-06-24T10:30:26.092Z,15.42
2018-06-24T10:31:26.522Z,15.43
2018-06-24T10:32:26.993Z,15.44
2018-06-24T10:33:27.466Z,15.45
2018-06-24T10:34:27.943Z,15.47
2018-06-24T10:35:28.414Z,15.47
2018-06-24T10:36:28.952Z,15.50
2018-06-24T10:37:29.363Z,15.50
2018-06-24T10:38:29.838Z,15.52
2018-06-24T10:39:30.309Z,15.52
2018-06-24T10:40:30.835Z,15.54
2018-06-24T10:41:31.259Z,15.58
2018-06-24T10:42:31.731Z,15.58
2018-06-24T10:43:32.206Z,15.60
2018-06-24T10:44:32.680Z,15.63
2018-06-24T10:45:33.155Z,15.66
2018-06-24T10:46:33.628Z,15.68
2018-06-24T10:47:34.101Z,15.70
2018-06-24T10:48:34.571Z,15.72
2018-06-24T10:49:35.048Z,15.74
2018-06-24T10:50:35.519Z,15.75
2018-06-24T10:51:35.992Z,15.77
2018-06-24T10:52:36.464Z,15.78
2018-06-24T10:53:36.936Z,15.80
2018-06-24T10:54:37.409Z,15.84
2018-06-24T10:55:37.932Z,15.86
2018-06-24T10:56:38.356Z,15.86
2018-06-24T10:57:38.831Z,15.90
2018-06-24T10:58:39.298Z,15.91
2018-06-24T10:59:39.771Z,15.92
2018-06-24T11:00:40.246Z,15.95
2018-06-24T11:01:40.717Z,15.96
2018-06-24T11:02:41.188Z,16.00
2018-06-24T11:03:41.660Z,16.02
2018-06-24T11:04:42.135Z,16.04
2018-06-24T11:05:42.606Z,16.06
2018-06-24T11:06:43.077Z,16.08
2018-06-24T11:07:43.549Z,16.09
2018-06-24T11:08:44.021Z,16.10
2018-06-24T11:09:44.548Z,16.12
2018-06-24T11:10:45.015Z,16.13
2018-06-24T11:11:45.436Z,16.14
2018-06-24T11:12:45.907Z,16.15
2018-06-24T11:13:46.380Z,16.17
2018-06-24T11:14:46.852Z,16.16
2018-06-24T11:15:47.374Z,16.19
2018-06-24T11:16:47.797Z,16.20
2018-06-24T11:17:48.270Z,16.22
2018-06-24T11:18:48.739Z,16.23
2018-06-24T11:19:49.211Z,16.25
2018-06-24T11:20:49.682Z,16.27
2018-06-24T11:21:50.159Z,16.28
2018-06-24T11:22:50.627Z,16.28
2018-06-24T11:23:51.098Z,16.30
2018-06-24T11:24:51.572Z,16.32
2018-06-24T11:25:52.043Z,16.33
2018-06-24T11:26:52.515Z,16.36
2018-06-24T11:27:52.990Z,16.37
2018-06-24T11:28:53.461Z,16.38
2018-06-24T11:29:53.936Z,16.40
2018-06-24T11:30:54.462Z,16.41
2018-06-24T11:31:54.884Z,16.42
2018-06-24T11:32:55.357Z,16.43
2018-06-24T11:33:55.833Z,16.45
2018-06-24T11:34:56.304Z,16.46
2018-06-24T11:35:56.781Z,16.47
2018-06-24T11:36:57.309Z,16.48
2018-06-24T11:37:57.734Z,16.49
2018-06-24T11:38:58.206Z,16.52
2018-06-24T11:39:58.684Z,16.52
2018-06-24T11:40:59.158Z,16.53
2018-06-24T11:41:59.635Z,16.54
2018-06-24T11:43:00.109Z,16.54
2018-06-24T11:44:00.584Z,16.56
2018-06-24T11:45:01.061Z,16.56
2018-06-24T11:46:01.588Z,16.58
2018-06-24T11:47:02.014Z,16.57
2018-06-24T11:48:02.490Z,16.57
2018-06-24T11:49:02.965Z,16.58
2018-06-24T11:50:03.445Z,16.58
2018-06-24T11:51:03.919Z,16.58
2018-06-24T11:52:04.394Z,16.58
2018-06-24T11:53:04.873Z,16.60
2018-06-24T11:54:05.350Z,16.60
2018-06-24T11:55:05.822Z,16.61
2018-06-24T11:56:06.298Z,16.61
2018-06-24T11:57:06.779Z,16.62
2018-06-24T11:58:07.250Z,16.62
2018-06-24T11:59:07.728Z,16.62
2018-06-24T12:00:08.202Z,16.62
2018-06-24T12:01:08.677Z,16.63
2018-06-24T12:02:09.155Z,16.64
2018-06-24T12:03:09.627Z,16.64
2018-06-24T12:04:10.140Z,16.65
2018-06-24T12:05:10.581Z,16.66
2018-06-24T12:06:11.059Z,16.68
2018-06-24T12:07:11.529Z,16.69
2018-06-24T12:08:12.005Z,16.70
2018-06-24T12:09:12.481Z,16.72
2018-06-24T12:10:12.959Z,16.72
2018-06-24T12:11:13.478Z,16.74
2018-06-24T12:12:13.903Z,16.74
2018-06-24T12:13:14.380Z,16.74
2018-06-24T12:14:14.852Z,16.74
2018-06-24T12:15:15.328Z,16.76
2018-06-24T12:16:15.800Z,16.76
2018-06-24T12:17:16.274Z,16.77
2018-06-24T12:18:16.820Z,16.78
2018-06-24T12:19:17.224Z,16.78
2018-06-24T12:20:17.703Z,16.80
2018-06-24T12:21:18.222Z,16.80
2018-06-24T12:22:18.648Z,16.81
2018-06-24T12:23:19.119Z,16.82
2018-06-24T12:24:19.593Z,16.84
2018-06-24T12:25:20.067Z,16.86
2018-06-24T12:26:20.539Z,16.87
2018-06-24T12:27:21.012Z,16.88
2018-06-24T12:28:21.487Z,16.90
2018-06-24T12:29:21.961Z,16.91
2018-06-24T12:30:22.434Z,16.95
2018-06-24T12:31:22.908Z,16.96
2018-06-24T12:32:23.380Z,16.98
2018-06-24T12:33:23.858Z,17.00
2018-06-24T12:34:24.327Z,17.01
2018-06-24T12:35:24.798Z,17.03
2018-06-24T12:36:25.274Z,17.05
2018-06-24T12:37:25.800Z,17.07
2018-06-24T12:38:26.218Z,17.08
2018-06-24T12:39:26.692Z,17.08
2018-06-24T12:40:27.166Z,17.11
2018-06-24T12:41:27.640Z,17.12
2018-06-24T12:42:28.110Z,17.14
2018-06-24T12:43:28.623Z,17.16
2018-06-24T12:44:29.057Z,17.17
2018-06-24T12:45:29.563Z,17.18
2018-06-24T12:46:30.004Z,17.19
2018-06-24T12:47:30.476Z,17.18
2018-06-24T12:48:30.947Z,17.20
2018-06-24T12:49:31.418Z,17.20
2018-06-24T12:50:31.891Z,17.21
2018-06-24T12:51:32.364Z,17.22
2018-06-24T12:52:32.836Z,17.20
2018-06-24T12:53:33.309Z,17.22
2018-06-24T12:54:33.787Z,17.22
2018-06-24T12:55:34.253Z,17.20
2018-06-24T12:56:34.729Z,17.21
2018-06-24T12:57:35.198Z,17.20
2018-06-24T12:58:35.726Z,17.18
2018-06-24T12:59:36.542Z,17.18
2018-06-24T13:00:37.239Z,17.18
2018-06-24T13:01:37.086Z,17.18
2018-06-24T13:02:37.558Z,17.18
2018-06-24T13:03:38.047Z,17.17
2018-06-24T13:04:38.501Z,17.18
2018-06-24T13:05:38.974Z,17.17
2018-06-24T13:06:39.444Z,17.18
2018-06-24T13:07:39.918Z,17.17
2018-06-24T13:08:40.389Z,17.16
2018-06-24T13:09:40.864Z,17.16
2018-06-24T13:10:41.331Z,17.16
2018-06-24T13:11:41.853Z,17.14
2018-06-24T13:12:42.276Z,17.15
2018-06-24T13:13:42.746Z,17.14
2018-06-24T13:14:43.218Z,17.14